sensor_id;sensor_type;location;lat;lon;timestamp;pressure;altitude;pressure_sealevel;temperature;humidity
62926;BME280;55732;52.248;-0.844;2023-09-08T00:01:40;100714.34;;;20.88;69.61
62926;BME280;55732;52.248;-0.844;2023-09-08T00:04:05;100715.09;;;20.87;69.65
62926;BME280;55732;52.248;-0.844;2023-09-08T00:06:31;100708.65;;;20.83;69.59
62926;BME280;55732;52.248;-0.844;2023-09-08T00:08:56;100708.05;;;20.80;69.77
62926;BME280;55732;52.248;-0.844;2023-09-08T00:11:22;100712.91;;;20.79;69.88
62926;BME280;55732;52.248;-0.844;2023-09-08T00:13:47;100717.34;;;20.76;69.84
62926;BME280;55732;52.248;-0.844;2023-09-08T00:16:12;100720.55;;;20.72;69.93
62926;BME280;55732;52.248;-0.844;2023-09-08T00:18:38;100720.52;;;20.68;70.23
62926;BME280;55732;52.248;-0.844;2023-09-08T00:21:03;100722.67;;;20.68;70.43
62926;BME280;55732;52.248;-0.844;2023-09-08T00:23:28;100723.73;;;20.68;70.46
62926;BME280;55732;52.248;-0.844;2023-09-08T00:25:54;100718.16;;;20.69;70.52
62926;BME280;55732;52.248;-0.844;2023-09-08T00:28:19;100715.70;;;20.63;70.57
62926;BME280;55732;52.248;-0.844;2023-09-08T00:30:44;100723.59;;;20.67;70.81
62926;BME280;55732;52.248;-0.844;2023-09-08T00:33:09;100719.56;;;20.65;70.71
62926;BME280;55732;52.248;-0.844;2023-09-08T00:35:36;100721.94;;;20.60;70.75
62926;BME280;55732;52.248;-0.844;2023-09-08T00:38:02;100726.45;;;20.54;71.05
62926;BME280;55732;52.248;-0.844;2023-09-08T00:40:27;100720.85;;;20.52;71.27
62926;BME280;55732;52.248;-0.844;2023-09-08T00:42:53;100715.39;;;20.49;71.60
62926;BME280;55732;52.248;-0.844;2023-09-08T00:45:18;100716.79;;;20.45;71.56
62926;BME280;55732;52.248;-0.844;2023-09-08T00:47:43;100708.02;;;20.42;71.70
62926;BME280;55732;52.248;-0.844;2023-09-08T00:50:09;100711.20;;;20.37;71.77
62926;BME280;55732;52.248;-0.844;2023-09-08T00:52:34;100702.88;;;20.26;71.77
62926;BME280;55732;52.248;-0.844;2023-09-08T00:54:59;100704.17;;;20.25;72.30
62926;BME280;55732;52.248;-0.844;2023-09-08T00:57:25;100698.56;;;20.22;72.32
62926;BME280;55732;52.248;-0.844;2023-09-08T00:59:50;100705.06;;;20.20;72.27
62926;BME280;55732;52.248;-0.844;2023-09-08T01:02:16;100701.17;;;20.14;72.38
62926;BME280;55732;52.248;-0.844;2023-09-08T01:04:41;100711.27;;;20.12;72.54
62926;BME280;55732;52.248;-0.844;2023-09-08T01:07:07;100710.23;;;20.11;72.57
62926;BME280;55732;52.248;-0.844;2023-09-08T01:09:33;100709.20;;;20.10;72.58
62926;BME280;55732;52.248;-0.844;2023-09-08T01:11:59;100696.35;;;20.05;72.67
62926;BME280;55732;52.248;-0.844;2023-09-08T01:14:27;100694.77;;;20.04;72.93
62926;BME280;55732;52.248;-0.844;2023-09-08T01:16:52;100702.45;;;20.04;72.92
62926;BME280;55732;52.248;-0.844;2023-09-08T01:19:18;100700.29;;;20.00;73.02
62926;BME280;55732;52.248;-0.844;2023-09-08T01:22:08;100701.50;;;19.96;73.13
62926;BME280;55732;52.248;-0.844;2023-09-08T01:27:20;100705.75;;;19.88;73.42
62926;BME280;55732;52.248;-0.844;2023-09-08T01:29:48;100706.02;;;19.86;73.51
62926;BME280;55732;52.248;-0.844;2023-09-08T01:32:14;100703.21;;;19.84;73.47
62926;BME280;55732;52.248;-0.844;2023-09-08T01:34:40;100699.40;;;19.81;73.56
62926;BME280;55732;52.248;-0.844;2023-09-08T01:37:06;100702.22;;;19.78;73.48
62926;BME280;55732;52.248;-0.844;2023-09-08T01:39:32;100701.39;;;19.71;73.54
62926;BME280;55732;52.248;-0.844;2023-09-08T01:41:57;100699.48;;;19.65;73.76
62926;BME280;55732;52.248;-0.844;2023-09-08T01:44:23;100699.97;;;19.57;74.01
62926;BME280;55732;52.248;-0.844;2023-09-08T01:46:48;100699.27;;;19.51;74.46
62926;BME280;55732;52.248;-0.844;2023-09-08T01:49:16;100700.21;;;19.48;74.57
62926;BME280;55732;52.248;-0.844;2023-09-08T01:51:41;100701.55;;;19.46;74.66
62926;BME280;55732;52.248;-0.844;2023-09-08T01:54:06;100702.08;;;19.46;74.69
62926;BME280;55732;52.248;-0.844;2023-09-08T01:56:32;100703.55;;;19.46;74.85
62926;BME280;55732;52.248;-0.844;2023-09-08T01:58:57;100698.91;;;19.45;74.74
62926;BME280;55732;52.248;-0.844;2023-09-08T02:01:24;100699.33;;;19.44;74.86
62926;BME280;55732;52.248;-0.844;2023-09-08T02:03:49;100704.38;;;19.42;74.98
62926;BME280;55732;52.248;-0.844;2023-09-08T02:06:14;100696.76;;;19.40;75.00
62926;BME280;55732;52.248;-0.844;2023-09-08T02:08:40;100688.98;;;19.38;74.96
62926;BME280;55732;52.248;-0.844;2023-09-08T02:11:05;100694.20;;;19.37;74.83
62926;BME280;55732;52.248;-0.844;2023-09-08T02:13:30;100691.83;;;19.34;74.71
62926;BME280;55732;52.248;-0.844;2023-09-08T02:15:56;100691.67;;;19.28;74.75
62926;BME280;55732;52.248;-0.844;2023-09-08T02:18:21;100688.69;;;19.21;74.99
62926;BME280;55732;52.248;-0.844;2023-09-08T02:20:46;100693.23;;;19.24;75.05
62926;BME280;55732;52.248;-0.844;2023-09-08T02:23:11;100695.81;;;19.23;75.05
62926;BME280;55732;52.248;-0.844;2023-09-08T02:25:37;100697.45;;;19.21;75.12
62926;BME280;55732;52.248;-0.844;2023-09-08T02:28:02;100701.89;;;19.22;75.17
62926;BME280;55732;52.248;-0.844;2023-09-08T02:30:28;100698.84;;;19.23;75.25
62926;BME280;55732;52.248;-0.844;2023-09-08T02:32:53;100698.58;;;19.20;75.16
62926;BME280;55732;52.248;-0.844;2023-09-08T02:35:20;100698.86;;;19.17;75.20
62926;BME280;55732;52.248;-0.844;2023-09-08T02:37:46;100702.63;;;19.16;75.27
62926;BME280;55732;52.248;-0.844;2023-09-08T02:40:11;100696.59;;;19.15;75.22
62926;BME280;55732;52.248;-0.844;2023-09-08T02:42:36;100700.73;;;19.13;75.21
62926;BME280;55732;52.248;-0.844;2023-09-08T02:45:02;100699.02;;;19.06;75.18
62926;BME280;55732;52.248;-0.844;2023-09-08T02:47:27;100700.20;;;19.04;75.26
62926;BME280;55732;52.248;-0.844;2023-09-08T02:49:52;100708.44;;;19.02;75.39
62926;BME280;55732;52.248;-0.844;2023-09-08T02:52:17;100706.16;;;18.96;75.69
62926;BME280;55732;52.248;-0.844;2023-09-08T02:54:44;100711.19;;;18.90;75.70
62926;BME280;55732;52.248;-0.844;2023-09-08T02:57:10;100710.39;;;18.82;75.94
62926;BME280;55732;52.248;-0.844;2023-09-08T02:59:35;100706.95;;;18.77;76.19
62926;BME280;55732;52.248;-0.844;2023-09-08T03:02:00;100714.58;;;18.74;76.27
62926;BME280;55732;52.248;-0.844;2023-09-08T03:04:26;100714.16;;;18.70;76.62
62926;BME280;55732;52.248;-0.844;2023-09-08T03:06:51;100714.39;;;18.69;76.68
62926;BME280;55732;52.248;-0.844;2023-09-08T03:09:16;100718.39;;;18.66;76.99
62926;BME280;55732;52.248;-0.844;2023-09-08T03:11:42;100716.79;;;18.66;77.05
62926;BME280;55732;52.248;-0.844;2023-09-08T03:14:07;100716.08;;;18.66;76.89
62926;BME280;55732;52.248;-0.844;2023-09-08T03:16:33;100714.92;;;18.64;76.76
62926;BME280;55732;52.248;-0.844;2023-09-08T03:18:58;100712.12;;;18.62;77.04
62926;BME280;55732;52.248;-0.844;2023-09-08T03:21:23;100713.00;;;18.62;77.15
62926;BME280;55732;52.248;-0.844;2023-09-08T03:23:49;100709.80;;;18.62;77.08
62926;BME280;55732;52.248;-0.844;2023-09-08T03:26:14;100713.90;;;18.62;77.15
62926;BME280;55732;52.248;-0.844;2023-09-08T03:28:41;100711.78;;;18.61;77.04
62926;BME280;55732;52.248;-0.844;2023-09-08T03:31:07;100717.00;;;18.60;76.94
62926;BME280;55732;52.248;-0.844;2023-09-08T03:33:32;100714.58;;;18.56;77.01
62926;BME280;55732;52.248;-0.844;2023-09-08T03:35:58;100713.39;;;18.54;77.22
62926;BME280;55732;52.248;-0.844;2023-09-08T03:38:23;100704.81;;;18.49;77.23
62926;BME280;55732;52.248;-0.844;2023-09-08T03:40:48;100714.74;;;18.52;77.19
62926;BME280;55732;52.248;-0.844;2023-09-08T03:43:14;100715.39;;;18.48;76.83
62926;BME280;55732;52.248;-0.844;2023-09-08T03:45:39;100711.35;;;18.40;76.91
62926;BME280;55732;52.248;-0.844;2023-09-08T03:48:05;100709.78;;;18.33;77.08
62926;BME280;55732;52.248;-0.844;2023-09-08T03:50:30;100707.68;;;18.32;77.20
62926;BME280;55732;52.248;-0.844;2023-09-08T03:52:56;100704.34;;;18.30;77.33
62926;BME280;55732;52.248;-0.844;2023-09-08T03:55:21;100700.27;;;18.30;77.37
62926;BME280;55732;52.248;-0.844;2023-09-08T03:57:46;100697.48;;;18.29;77.49
62926;BME280;55732;52.248;-0.844;2023-09-08T04:00:13;100699.84;;;18.27;77.48
62926;BME280;55732;52.248;-0.844;2023-09-08T04:02:44;100701.00;;;18.24;77.58
62926;BME280;55732;52.248;-0.844;2023-09-08T04:05:09;100705.20;;;18.20;77.68
62926;BME280;55732;52.248;-0.844;2023-09-08T04:07:35;100706.06;;;18.16;77.79
62926;BME280;55732;52.248;-0.844;2023-09-08T04:10:01;100706.09;;;18.08;77.81
62926;BME280;55732;52.248;-0.844;2023-09-08T04:12:26;100707.92;;;18.01;77.98
62926;BME280;55732;52.248;-0.844;2023-09-08T04:14:52;100707.16;;;17.96;78.21
62926;BME280;55732;52.248;-0.844;2023-09-08T04:17:17;100703.35;;;17.93;78.42
62926;BME280;55732;52.248;-0.844;2023-09-08T04:19:43;100699.64;;;17.92;78.75
62926;BME280;55732;52.248;-0.844;2023-09-08T04:22:08;100697.51;;;17.92;78.84
62926;BME280;55732;52.248;-0.844;2023-09-08T04:24:35;100697.90;;;17.91;78.78
62926;BME280;55732;52.248;-0.844;2023-09-08T04:27:01;100705.09;;;17.88;78.74
62926;BME280;55732;52.248;-0.844;2023-09-08T04:29:26;100711.58;;;17.86;78.73
62926;BME280;55732;52.248;-0.844;2023-09-08T04:31:52;100712.16;;;17.84;78.81
62926;BME280;55732;52.248;-0.844;2023-09-08T04:34:17;100713.04;;;17.84;79.02
62926;BME280;55732;52.248;-0.844;2023-09-08T04:36:43;100718.71;;;17.85;78.93
62926;BME280;55732;52.248;-0.844;2023-09-08T04:39:08;100718.17;;;17.85;78.90
62926;BME280;55732;52.248;-0.844;2023-09-08T04:41:36;100719.09;;;17.85;78.68
62926;BME280;55732;52.248;-0.844;2023-09-08T04:44:01;100721.88;;;17.81;78.60
62926;BME280;55732;52.248;-0.844;2023-09-08T04:46:27;100725.65;;;17.80;78.82
62926;BME280;55732;52.248;-0.844;2023-09-08T04:48:52;100724.98;;;17.79;78.95
62926;BME280;55732;52.248;-0.844;2023-09-08T04:51:17;100725.88;;;17.79;79.02
62926;BME280;55732;52.248;-0.844;2023-09-08T04:53:42;100722.92;;;17.75;78.65
62926;BME280;55732;52.248;-0.844;2023-09-08T04:56:08;100719.25;;;17.67;78.77
62926;BME280;55732;52.248;-0.844;2023-09-08T04:58:33;100723.80;;;17.62;78.96
62926;BME280;55732;52.248;-0.844;2023-09-08T05:00:58;100722.12;;;17.59;79.11
62926;BME280;55732;52.248;-0.844;2023-09-08T05:03:24;100721.55;;;17.54;79.39
62926;BME280;55732;52.248;-0.844;2023-09-08T05:05:51;100721.23;;;17.52;79.60
62926;BME280;55732;52.248;-0.844;2023-09-08T05:08:16;100719.50;;;17.50;79.61
62926;BME280;55732;52.248;-0.844;2023-09-08T05:10:43;100715.23;;;17.50;79.92
62926;BME280;55732;52.248;-0.844;2023-09-08T05:13:08;100718.95;;;17.51;79.91
62926;BME280;55732;52.248;-0.844;2023-09-08T05:15:34;100717.16;;;17.51;79.70
62926;BME280;55732;52.248;-0.844;2023-09-08T05:17:59;100717.53;;;17.50;79.72
62926;BME280;55732;52.248;-0.844;2023-09-08T05:20:25;100714.86;;;17.51;80.03
62926;BME280;55732;52.248;-0.844;2023-09-08T05:22:52;100718.89;;;17.53;80.03
62926;BME280;55732;52.248;-0.844;2023-09-08T05:25:17;100724.13;;;17.50;79.77
62926;BME280;55732;52.248;-0.844;2023-09-08T05:27:42;100726.02;;;17.46;79.93
62926;BME280;55732;52.248;-0.844;2023-09-08T05:30:08;100732.67;;;17.45;80.22
62926;BME280;55732;52.248;-0.844;2023-09-08T05:32:33;100729.65;;;17.44;80.34
62926;BME280;55732;52.248;-0.844;2023-09-08T05:34:59;100735.70;;;17.44;80.08
62926;BME280;55732;52.248;-0.844;2023-09-08T05:37:24;100734.04;;;17.40;80.29
62926;BME280;55732;52.248;-0.844;2023-09-08T05:39:50;100745.08;;;17.39;80.42
62926;BME280;55732;52.248;-0.844;2023-09-08T05:42:15;100748.13;;;17.39;80.60
62926;BME280;55732;52.248;-0.844;2023-09-08T05:44:40;100746.31;;;17.40;80.67
62926;BME280;55732;52.248;-0.844;2023-09-08T05:47:06;100747.52;;;17.42;80.72
62926;BME280;55732;52.248;-0.844;2023-09-08T05:49:31;100746.15;;;17.46;80.70
62926;BME280;55732;52.248;-0.844;2023-09-08T05:51:56;100747.61;;;17.51;80.61
62926;BME280;55732;52.248;-0.844;2023-09-08T05:54:22;100750.77;;;17.53;80.30
62926;BME280;55732;52.248;-0.844;2023-09-08T05:56:47;100751.64;;;17.60;80.47
62926;BME280;55732;52.248;-0.844;2023-09-08T05:59:12;100756.27;;;17.74;80.17
62926;BME280;55732;52.248;-0.844;2023-09-08T06:01:38;100753.00;;;17.83;79.77
62926;BME280;55732;52.248;-0.844;2023-09-08T06:04:03;100756.80;;;17.87;79.47
62926;BME280;55732;52.248;-0.844;2023-09-08T06:06:28;100760.70;;;17.87;79.24
62926;BME280;55732;52.248;-0.844;2023-09-08T06:08:54;100756.46;;;17.86;79.22
62926;BME280;55732;52.248;-0.844;2023-09-08T06:11:19;100762.82;;;17.94;79.02
62926;BME280;55732;52.248;-0.844;2023-09-08T06:13:44;100765.31;;;18.01;78.64
62926;BME280;55732;52.248;-0.844;2023-09-08T06:16:10;100772.11;;;17.99;78.88
62926;BME280;55732;52.248;-0.844;2023-09-08T06:18:35;100768.16;;;18.13;78.94
62926;BME280;55732;52.248;-0.844;2023-09-08T06:21:07;100764.73;;;18.20;78.80
62926;BME280;55732;52.248;-0.844;2023-09-08T06:23:33;100761.08;;;18.29;78.69
62926;BME280;55732;52.248;-0.844;2023-09-08T06:25:59;100762.84;;;18.41;78.26
62926;BME280;55732;52.248;-0.844;2023-09-08T06:28:25;100765.57;;;18.45;78.12
62926;BME280;55732;52.248;-0.844;2023-09-08T06:30:50;100766.23;;;18.47;77.99
62926;BME280;55732;52.248;-0.844;2023-09-08T06:33:15;100765.11;;;18.49;78.02
62926;BME280;55732;52.248;-0.844;2023-09-08T06:35:41;100769.04;;;18.49;77.84
62926;BME280;55732;52.248;-0.844;2023-09-08T06:38:06;100771.80;;;18.46;77.89
62926;BME280;55732;52.248;-0.844;2023-09-08T06:40:31;100777.05;;;18.43;77.91
62926;BME280;55732;52.248;-0.844;2023-09-08T06:42:56;100789.55;;;18.42;77.90
62926;BME280;55732;52.248;-0.844;2023-09-08T06:45:22;100796.20;;;18.41;78.02
62926;BME280;55732;52.248;-0.844;2023-09-08T06:47:48;100800.59;;;18.43;77.99
62926;BME280;55732;52.248;-0.844;2023-09-08T06:50:15;100798.11;;;18.42;77.83
62926;BME280;55732;52.248;-0.844;2023-09-08T06:52:40;100796.50;;;18.43;77.91
62926;BME280;55732;52.248;-0.844;2023-09-08T06:55:06;100794.77;;;18.47;77.86
62926;BME280;55732;52.248;-0.844;2023-09-08T06:57:31;100793.91;;;18.52;77.87
62926;BME280;55732;52.248;-0.844;2023-09-08T06:59:56;100796.59;;;18.64;77.78
62926;BME280;55732;52.248;-0.844;2023-09-08T07:02:21;100792.99;;;18.93;77.28
62926;BME280;55732;52.248;-0.844;2023-09-08T07:04:47;100793.77;;;19.50;76.16
62926;BME280;55732;52.248;-0.844;2023-09-08T07:07:12;100798.33;;;20.17;74.63
62926;BME280;55732;52.248;-0.844;2023-09-08T07:09:37;100795.73;;;20.62;73.48
62926;BME280;55732;52.248;-0.844;2023-09-08T07:12:03;100788.98;;;21.05;72.26
62926;BME280;55732;52.248;-0.844;2023-09-08T07:14:28;100790.11;;;21.09;71.73
62926;BME280;55732;52.248;-0.844;2023-09-08T07:16:54;100794.90;;;21.05;71.61
62926;BME280;55732;52.248;-0.844;2023-09-08T07:19:19;100807.08;;;21.01;71.45
62926;BME280;55732;52.248;-0.844;2023-09-08T07:21:44;100807.02;;;21.02;71.26
62926;BME280;55732;52.248;-0.844;2023-09-08T07:24:10;100804.28;;;21.59;70.13
62926;BME280;55732;52.248;-0.844;2023-09-08T07:26:35;100806.45;;;22.43;68.38
62926;BME280;55732;52.248;-0.844;2023-09-08T07:29:00;100802.44;;;23.22;66.90
62926;BME280;55732;52.248;-0.844;2023-09-08T07:31:25;100809.98;;;23.51;65.85
62926;BME280;55732;52.248;-0.844;2023-09-08T07:33:51;100810.50;;;24.43;64.19
62926;BME280;55732;52.248;-0.844;2023-09-08T07:36:16;100806.75;;;25.58;62.18
62926;BME280;55732;52.248;-0.844;2023-09-08T07:38:41;100803.02;;;26.76;59.40
62926;BME280;55732;52.248;-0.844;2023-09-08T07:41:06;100804.22;;;27.79;56.87
62926;BME280;55732;52.248;-0.844;2023-09-08T07:43:32;100796.93;;;28.79;54.48
62926;BME280;55732;52.248;-0.844;2023-09-08T07:45:57;100793.93;;;29.29;53.00
62926;BME280;55732;52.248;-0.844;2023-09-08T07:48:22;100794.02;;;29.72;52.27
62926;BME280;55732;52.248;-0.844;2023-09-08T07:50:47;100793.27;;;30.19;50.79
62926;BME280;55732;52.248;-0.844;2023-09-08T07:53:13;100791.94;;;30.74;49.72
62926;BME280;55732;52.248;-0.844;2023-09-08T07:55:38;100790.23;;;30.54;49.41
62926;BME280;55732;52.248;-0.844;2023-09-08T07:58:03;100788.32;;;30.26;49.38
62926;BME280;55732;52.248;-0.844;2023-09-08T08:00:29;100786.07;;;30.20;49.08
62926;BME280;55732;52.248;-0.844;2023-09-08T08:02:54;100783.30;;;30.41;48.73
62926;BME280;55732;52.248;-0.844;2023-09-08T08:05:20;100788.02;;;30.30;48.59
62926;BME280;55732;52.248;-0.844;2023-09-08T08:07:46;100788.44;;;29.86;49.01
62926;BME280;55732;52.248;-0.844;2023-09-08T08:10:12;100784.99;;;29.39;49.59
62926;BME280;55732;52.248;-0.844;2023-09-08T08:12:38;100783.91;;;29.58;49.18
62926;BME280;55732;52.248;-0.844;2023-09-08T08:15:03;100792.29;;;29.90;48.32
62926;BME280;55732;52.248;-0.844;2023-09-08T08:17:29;100794.67;;;29.97;48.25
62926;BME280;55732;52.248;-0.844;2023-09-08T08:19:56;100800.30;;;29.99;47.93
62926;BME280;55732;52.248;-0.844;2023-09-08T08:22:23;100807.79;;;29.91;47.84
62926;BME280;55732;52.248;-0.844;2023-09-08T08:24:49;100806.17;;;29.96;47.90
62926;BME280;55732;52.248;-0.844;2023-09-08T08:27:14;100810.10;;;30.08;47.53
62926;BME280;55732;52.248;-0.844;2023-09-08T08:29:39;100808.04;;;30.25;47.05
62926;BME280;55732;52.248;-0.844;2023-09-08T08:32:05;100805.61;;;30.26;47.24
62926;BME280;55732;52.248;-0.844;2023-09-08T08:34:30;100804.21;;;30.23;47.06
62926;BME280;55732;52.248;-0.844;2023-09-08T08:36:56;100808.11;;;30.27;46.92
62926;BME280;55732;52.248;-0.844;2023-09-08T08:39:21;100812.53;;;30.14;47.19
62926;BME280;55732;52.248;-0.844;2023-09-08T08:41:46;100815.98;;;29.75;47.69
62926;BME280;55732;52.248;-0.844;2023-09-08T08:44:11;100820.23;;;29.50;47.72
62926;BME280;55732;52.248;-0.844;2023-09-08T08:46:38;100820.63;;;29.26;48.40
62926;BME280;55732;52.248;-0.844;2023-09-08T08:49:04;100820.42;;;29.07;49.07
62926;BME280;55732;52.248;-0.844;2023-09-08T08:51:32;100814.88;;;28.89;49.14
62926;BME280;55732;52.248;-0.844;2023-09-08T08:53:59;100813.16;;;29.00;49.22
62926;BME280;55732;52.248;-0.844;2023-09-08T08:56:29;100810.89;;;29.32;49.19
62926;BME280;55732;52.248;-0.844;2023-09-08T08:58:54;100811.36;;;29.83;48.10
62926;BME280;55732;52.248;-0.844;2023-09-08T09:01:20;100813.10;;;30.09;47.63
62926;BME280;55732;52.248;-0.844;2023-09-08T09:03:48;100813.19;;;30.20;47.28
62926;BME280;55732;52.248;-0.844;2023-09-08T09:06:14;100815.11;;;30.34;47.11
62926;BME280;55732;52.248;-0.844;2023-09-08T09:08:40;100820.52;;;30.42;46.87
62926;BME280;55732;52.248;-0.844;2023-09-08T09:11:08;100824.86;;;30.40;46.77
62926;BME280;55732;52.248;-0.844;2023-09-08T09:13:33;100827.81;;;30.26;46.51
62926;BME280;55732;52.248;-0.844;2023-09-08T09:15:59;100824.23;;;30.15;46.81
62926;BME280;55732;52.248;-0.844;2023-09-08T09:18:25;100822.88;;;30.07;46.81
62926;BME280;55732;52.248;-0.844;2023-09-08T09:20:55;100819.51;;;29.97;46.67
62926;BME280;55732;52.248;-0.844;2023-09-08T09:23:31;100819.99;;;29.96;46.97
62926;BME280;55732;52.248;-0.844;2023-09-08T09:25:56;100819.66;;;29.74;47.40
62926;BME280;55732;52.248;-0.844;2023-09-08T09:28:22;100822.23;;;29.43;47.97
62926;BME280;55732;52.248;-0.844;2023-09-08T09:30:48;100823.52;;;29.19;48.53
62926;BME280;55732;52.248;-0.844;2023-09-08T09:33:14;100823.08;;;29.22;48.28
62926;BME280;55732;52.248;-0.844;2023-09-08T09:35:41;100823.68;;;29.51;47.76
62926;BME280;55732;52.248;-0.844;2023-09-08T09:38:06;100826.16;;;29.70;47.50
62926;BME280;55732;52.248;-0.844;2023-09-08T09:40:33;100820.19;;;29.74;47.58
62926;BME280;55732;52.248;-0.844;2023-09-08T09:42:58;100815.06;;;29.77;47.51
62926;BME280;55732;52.248;-0.844;2023-09-08T09:45:26;100810.66;;;29.83;47.53
62926;BME280;55732;52.248;-0.844;2023-09-08T09:47:52;100811.79;;;29.89;47.44
62926;BME280;55732;52.248;-0.844;2023-09-08T09:50:30;100806.40;;;29.91;47.39
62926;BME280;55732;52.248;-0.844;2023-09-08T09:53:00;100807.36;;;30.13;47.26
62926;BME280;55732;52.248;-0.844;2023-09-08T09:55:26;100808.03;;;30.25;46.72
62926;BME280;55732;52.248;-0.844;2023-09-08T09:57:52;100807.29;;;30.28;46.58
62926;BME280;55732;52.248;-0.844;2023-09-08T10:00:20;100811.84;;;30.30;46.40
62926;BME280;55732;52.248;-0.844;2023-09-08T10:02:46;100812.27;;;30.31;46.29
62926;BME280;55732;52.248;-0.844;2023-09-08T10:05:12;100808.50;;;30.33;46.57
62926;BME280;55732;52.248;-0.844;2023-09-08T10:07:38;100807.70;;;30.45;46.38
62926;BME280;55732;52.248;-0.844;2023-09-08T10:10:04;100809.27;;;30.62;46.12
62926;BME280;55732;52.248;-0.844;2023-09-08T10:12:30;100808.16;;;30.62;46.09
62926;BME280;55732;52.248;-0.844;2023-09-08T10:14:57;100811.16;;;30.49;46.42
62926;BME280;55732;52.248;-0.844;2023-09-08T10:17:23;100813.18;;;30.63;46.10
62926;BME280;55732;52.248;-0.844;2023-09-08T10:19:53;100811.87;;;30.97;45.52
62926;BME280;55732;52.248;-0.844;2023-09-08T10:22:21;100813.91;;;31.31;44.98
62926;BME280;55732;52.248;-0.844;2023-09-08T10:24:49;100813.88;;;31.40;44.79
62926;BME280;55732;52.248;-0.844;2023-09-08T10:27:15;100809.19;;;31.58;44.59
62926;BME280;55732;52.248;-0.844;2023-09-08T10:29:44;100808.72;;;31.83;44.11
62926;BME280;55732;52.248;-0.844;2023-09-08T10:32:10;100805.62;;;32.21;43.71
62926;BME280;55732;52.248;-0.844;2023-09-08T10:34:36;100810.39;;;32.35;43.36
62926;BME280;55732;52.248;-0.844;2023-09-08T10:37:02;100810.09;;;32.42;43.22
62926;BME280;55732;52.248;-0.844;2023-09-08T10:39:31;100813.91;;;32.26;43.44
62926;BME280;55732;52.248;-0.844;2023-09-08T10:44:40;100816.95;;;32.06;43.51
62926;BME280;55732;52.248;-0.844;2023-09-08T10:47:06;100814.36;;;31.79;43.80
62926;BME280;55732;52.248;-0.844;2023-09-08T10:49:34;100810.23;;;31.59;44.15
62926;BME280;55732;52.248;-0.844;2023-09-08T10:52:09;100808.95;;;31.36;44.49
62926;BME280;55732;52.248;-0.844;2023-09-08T10:55:08;100811.18;;;31.09;44.72
62926;BME280;55732;52.248;-0.844;2023-09-08T10:57:26;100811.08;;;30.93;45.22
62926;BME280;55732;52.248;-0.844;2023-09-08T10:59:55;100811.27;;;30.82;45.33
62926;BME280;55732;52.248;-0.844;2023-09-08T11:05:22;100812.46;;;30.51;45.69
62926;BME280;55732;52.248;-0.844;2023-09-08T11:07:48;100817.36;;;30.38;45.78
62926;BME280;55732;52.248;-0.844;2023-09-08T11:10:20;100817.34;;;30.31;46.10
62926;BME280;55732;52.248;-0.844;2023-09-08T11:12:45;100817.65;;;30.30;46.52
62926;BME280;55732;52.248;-0.844;2023-09-08T11:15:10;100816.39;;;30.28;46.13
62926;BME280;55732;52.248;-0.844;2023-09-08T11:17:36;100814.15;;;30.31;46.12
62926;BME280;55732;52.248;-0.844;2023-09-08T11:20:04;100812.14;;;30.35;45.96
62926;BME280;55732;52.248;-0.844;2023-09-08T11:22:34;100814.02;;;30.34;45.57
62926;BME280;55732;52.248;-0.844;2023-09-08T11:25:00;100803.86;;;30.25;45.53
62926;BME280;55732;52.248;-0.844;2023-09-08T11:27:27;100803.45;;;30.21;45.81
62926;BME280;55732;52.248;-0.844;2023-09-08T11:29:52;100806.11;;;30.20;45.58
62926;BME280;55732;52.248;-0.844;2023-09-08T11:32:18;100806.17;;;30.20;46.05
62926;BME280;55732;52.248;-0.844;2023-09-08T11:34:43;100805.02;;;30.25;45.95
62926;BME280;55732;52.248;-0.844;2023-09-08T11:37:12;100803.57;;;30.29;45.90
62926;BME280;55732;52.248;-0.844;2023-09-08T11:39:41;100802.36;;;30.37;45.64
62926;BME280;55732;52.248;-0.844;2023-09-08T11:42:07;100803.87;;;30.43;45.48
62926;BME280;55732;52.248;-0.844;2023-09-08T11:44:33;100804.75;;;30.50;45.49
62926;BME280;55732;52.248;-0.844;2023-09-08T11:46:59;100799.98;;;30.58;45.38
62926;BME280;55732;52.248;-0.844;2023-09-08T11:49:25;100795.42;;;30.64;45.21
62926;BME280;55732;52.248;-0.844;2023-09-08T11:51:51;100793.81;;;30.64;45.21
62926;BME280;55732;52.248;-0.844;2023-09-08T11:54:16;100794.31;;;30.69;45.21
62926;BME280;55732;52.248;-0.844;2023-09-08T11:56:42;100793.33;;;30.72;45.25
62926;BME280;55732;52.248;-0.844;2023-09-08T11:59:08;100793.23;;;30.79;45.15
62926;BME280;55732;52.248;-0.844;2023-09-08T12:01:33;100792.44;;;30.85;45.52
62926;BME280;55732;52.248;-0.844;2023-09-08T12:03:58;100792.77;;;30.90;45.47
62926;BME280;55732;52.248;-0.844;2023-09-08T12:06:27;100792.07;;;30.87;45.22
62926;BME280;55732;52.248;-0.844;2023-09-08T12:08:56;100791.49;;;30.90;45.43
62926;BME280;55732;52.248;-0.844;2023-09-08T12:11:21;100789.21;;;30.92;45.49
62926;BME280;55732;52.248;-0.844;2023-09-08T12:13:47;100791.16;;;30.94;45.84
62926;BME280;55732;52.248;-0.844;2023-09-08T12:16:19;100792.67;;;30.98;45.76
62926;BME280;55732;52.248;-0.844;2023-09-08T12:18:44;100791.82;;;31.05;45.46
62926;BME280;55732;52.248;-0.844;2023-09-08T12:21:10;100784.98;;;31.07;45.55
62926;BME280;55732;52.248;-0.844;2023-09-08T12:23:40;100781.42;;;31.08;45.22
62926;BME280;55732;52.248;-0.844;2023-09-08T12:26:11;100781.73;;;31.04;44.49
62926;BME280;55732;52.248;-0.844;2023-09-08T12:28:37;100781.85;;;30.99;43.94
62926;BME280;55732;52.248;-0.844;2023-09-08T12:31:02;100781.60;;;30.91;44.10
62926;BME280;55732;52.248;-0.844;2023-09-08T12:33:28;100780.14;;;30.82;44.78
62926;BME280;55732;52.248;-0.844;2023-09-08T12:35:53;100780.59;;;30.79;44.76
62926;BME280;55732;52.248;-0.844;2023-09-08T12:38:18;100782.86;;;30.76;45.05
62926;BME280;55732;52.248;-0.844;2023-09-08T12:40:44;100781.80;;;30.69;45.57
62926;BME280;55732;52.248;-0.844;2023-09-08T12:43:09;100774.61;;;30.67;44.86